Time;durP1;ratioP1;P1;durP2;ratioP2;P2;SDS_P1;SDS_P2;PMS_P1;PMS_P2;Temp;Humidity;BMP_temperature;BMP_pressure;BME280_temperature;BME280_humidity;BME280_pressure;Samples;Min_cycle;Max_cycle;Signal;HPM_P1;HPM_P2
2021/01/01 00:00:43;;;;;;;18.55;10.88;;;0.90;99.90;;;;;;5078800;28;20032;-60
2021/01/01 00:03:09;;;;;;;21.75;13.52;;;1.00;99.90;;;;;;5077430;28;20047;-61
2021/01/01 00:05:35;;;;;;;21.70;13.10;;;1.00;99.90;;;;;;5074290;28;20065;-60
2021/01/01 00:08:01;;;;;;;25.38;14.50;;;1.00;99.90;;;;;;5077889;28;20036;-57
2021/01/01 00:10:26;;;;;;;27.55;15.70;;;1.00;99.90;;;;;;5078321;28;20047;-61
2021/01/01 00:12:52;;;;;;;22.80;11.80;;;1.00;99.90;;;;;;5079449;28;20040;-60
2021/01/01 00:15:18;;;;;;;20.33;11.32;;;1.00;99.90;;;;;;5069057;28;20120;-59
2021/01/01 00:17:43;;;;;;;19.77;11.48;;;0.90;99.90;;;;;;5065897;28;20553;-61
2021/01/01 00:20:10;;;;;;;18.77;11.60;;;0.90;99.90;;;;;;5061878;28;20119;-57
2021/01/01 00:22:36;;;;;;;27.08;12.18;;;0.80;99.90;;;;;;5046210;28;20045;-59
2021/01/01 00:25:03;;;;;;;18.42;11.73;;;0.90;99.90;;;;;;5046299;28;20049;-59
2021/01/01 00:27:30;;;;;;;20.08;12.15;;;0.90;99.90;;;;;;5056690;28;20045;-57
2021/01/01 00:29:56;;;;;;;20.92;12.82;;;0.80;99.90;;;;;;5065673;28;20399;-59
2021/01/01 00:32:22;;;;;;;25.00;13.20;;;0.90;99.90;;;;;;5065029;28;20052;-61
2021/01/01 00:34:48;;;;;;;23.40;12.57;;;0.90;99.90;;;;;;5062096;28;20036;-61
2021/01/01 00:37:14;;;;;;;24.35;13.30;;;0.90;99.90;;;;;;5056689;28;20404;-61
2021/01/01 00:39:39;;;;;;;24.65;15.13;;;0.90;99.90;;;;;;5063535;28;20496;-58
2021/01/01 00:42:05;;;;;;;27.98;14.52;;;0.80;99.90;;;;;;5066372;28;20108;-60
2021/01/01 00:44:31;;;;;;;25.40;15.70;;;0.90;99.90;;;;;;5065695;28;20056;-61
2021/01/01 00:46:57;;;;;;;47.00;27.63;;;0.90;99.90;;;;;;5064654;28;20037;-60
2021/01/01 00:49:22;;;;;;;30.25;17.80;;;0.90;99.90;;;;;;5044748;28;20044;-60
2021/01/01 00:51:48;;;;;;;27.80;15.70;;;0.90;99.90;;;;;;5047056;28;20040;-60
2021/01/01 00:54:14;;;;;;;127.68;71.90;;;0.90;99.90;;;;;;5044980;28;20045;-60
2021/01/01 00:59:29;;;;;;;29.13;17.20;;;0.90;99.90;;;;;;5120114;27;20336;-55
2021/01/01 01:01:55;;;;;;;30.65;16.92;;;0.90;99.90;;;;;;5091973;27;20472;-57
2021/01/01 01:04:21;;;;;;;41.80;21.63;;;0.90;99.90;;;;;;5080971;28;20290;-59
2021/01/01 01:06:46;;;;;;;42.70;20.73;;;0.90;99.90;;;;;;5078204;28;20050;-60
2021/01/01 01:09:12;;;;;;;34.28;20.38;;;0.80;99.90;;;;;;5085969;28;20046;-60
2021/01/01 01:11:37;;;;;;;36.70;21.10;;;0.90;99.90;;;;;;5083993;28;20035;-61
2021/01/01 01:14:03;;;;;;;32.70;18.80;;;0.90;99.90;;;;;;5088592;28;20447;-60
2021/01/01 01:16:31;;;;;;;37.35;20.23;;;0.90;99.90;;;;;;5084890;28;20043;-61
2021/01/01 01:18:57;;;;;;;36.78;19.80;;;0.90;99.90;;;;;;5090470;28;20043;-60
2021/01/01 01:21:24;;;;;;;38.58;21.17;;;0.80;99.90;;;;;;5100277;28;20079;-59
2021/01/01 23:04:38;;;;;;;23.95;9.05;;;-0.30;99.90;;;;;;5100597;27;20320;-61
2021/01/01 23:07:06;;;;;;;21.33;10.35;;;-0.30;99.90;;;;;;5083595;28;20044;-62
2021/01/01 23:09:32;;;;;;;25.58;10.93;;;-0.30;99.90;;;;;;5079756;28;20036;-61
2021/01/01 23:11:58;;;;;;;21.63;10.15;;;-0.20;99.90;;;;;;5087154;28;20423;-61
2021/01/01 23:14:25;;;;;;;28.77;12.05;;;-0.20;99.90;;;;;;5099582;28;20044;-62
2021/01/01 23:16:53;;;;;;;26.42;11.32;;;-0.10;99.90;;;;;;5065066;28;20041;-62
2021/01/01 23:19:27;;;;;;;25.20;10.77;;;0.00;99.90;;;;;;5060208;28;20040;-61
2021/01/01 23:21:57;;;;;;;25.33;11.07;;;0.00;99.90;;;;;;5061425;28;20047;-61
2021/01/01 23:24:26;;;;;;;26.33;11.93;;;0.00;99.90;;;;;;5060574;28;20055;-62
2021/01/01 23:27:03;;;;;;;24.95;11.48;;;0.10;99.90;;;;;;5060684;28;20032;-62
2021/01/01 23:30:04;;;;;;;23.42;9.73;;;0.10;99.90;;;;;;5057683;28;20481;-60
2021/01/01 23:32:44;;;;;;;25.85;11.88;;;0.20;99.90;;;;;;5038919;28;20150;-61
2021/01/01 23:35:12;;;;;;;26.40;11.95;;;0.20;99.90;;;;;;5040118;28;20373;-61
2021/01/01 23:38:03;;;;;;;28.08;12.70;;;0.30;99.90;;;;;;5040439;28;20049;-61
2021/01/01 23:40:46;;;;;;;23.45;10.65;;;0.30;99.90;;;;;;5039297;28;20080;-62
2021/01/01 23:43:30;;;;;;;25.73;11.55;;;0.40;99.90;;;;;;5039939;28;20045;-61
2021/01/01 23:46:05;;;;;;;23.85;12.43;;;0.40;99.90;;;;;;5046417;28;20037;-61
2021/01/01 23:48:38;;;;;;;26.75;12.48;;;0.40;99.90;;;;;;5060223;28;20040;-60
2021/01/01 23:51:05;;;;;;;27.75;12.25;;;0.30;99.90;;;;;;5060687;28;20037;-61
2021/01/01 23:53:32;;;;;;;25.95;11.25;;;0.40;99.90;;;;;;5079279;28;20412;-63
2021/01/01 23:55:57;;;;;;;24.77;12.15;;;0.40;99.90;;;;;;5080589;28;20033;-62
2021/01/01 23:58:23;;;;;;;27.63;11.27;;;0.40;99.90;;;;;;5079652;28;20123;-62
